sensor_id;sensor_type;location;lat;lon;timestamp;temperature;humidity
14349;DHT22;7258;50.376;8.742;2023-06-26T00:01:12;20.10;99.90
14349;DHT22;7258;50.376;8.742;2023-06-26T00:03:15;20.10;99.90
14349;DHT22;7258;50.376;8.742;2023-06-26T00:05:18;20.10;99.90
14349;DHT22;7258;50.376;8.742;2023-06-26T00:07:21;20.00;99.90
14349;DHT22;7258;50.376;8.742;2023-06-26T00:09:24;19.90;99.90
14349;DHT22;7258;50.376;8.742;2023-06-26T00:11:27;19.80;99.90
14349;DHT22;7258;50.376;8.742;2023-06-26T00:13:34;19.80;99.90
14349;DHT22;7258;50.376;8.742;2023-06-26T00:15:37;19.80;99.90
14349;DHT22;7258;50.376;8.742;2023-06-26T00:17:39;19.70;99.90
14349;DHT22;7258;50.376;8.742;2023-06-26T00:19:42;19.70;99.90
14349;DHT22;7258;50.376;8.742;2023-06-26T00:21:45;19.70;99.90
14349;DHT22;7258;50.376;8.742;2023-06-26T00:23:49;19.70;99.90
14349;DHT22;7258;50.376;8.742;2023-06-26T00:25:52;19.80;99.90
14349;DHT22;7258;50.376;8.742;2023-06-26T00:27:57;19.70;99.90
14349;DHT22;7258;50.376;8.742;2023-06-26T00:30:01;19.70;99.90
14349;DHT22;7258;50.376;8.742;2023-06-26T00:32:04;19.70;99.90
14349;DHT22;7258;50.376;8.742;2023-06-26T00:34:07;19.60;99.90
14349;DHT22;7258;50.376;8.742;2023-06-26T00:36:10;19.60;99.90
14349;DHT22;7258;50.376;8.742;2023-06-26T00:38:13;19.50;99.90
14349;DHT22;7258;50.376;8.742;2023-06-26T00:40:16;19.40;99.90
14349;DHT22;7258;50.376;8.742;2023-06-26T00:42:19;19.40;99.90
14349;DHT22;7258;50.376;8.742;2023-06-26T00:44:22;19.40;99.90
14349;DHT22;7258;50.376;8.742;2023-06-26T00:46:27;19.40;99.90
14349;DHT22;7258;50.376;8.742;2023-06-26T00:48:30;19.40;99.90
14349;DHT22;7258;50.376;8.742;2023-06-26T00:50:33;19.30;99.90
14349;DHT22;7258;50.376;8.742;2023-06-26T00:52:38;19.30;99.90
14349;DHT22;7258;50.376;8.742;2023-06-26T00:54:41;19.20;99.90
14349;DHT22;7258;50.376;8.742;2023-06-26T00:56:45;19.10;99.90
14349;DHT22;7258;50.376;8.742;2023-06-26T00:58:48;19.00;99.90
14349;DHT22;7258;50.376;8.742;2023-06-26T01:00:51;19.00;99.90
14349;DHT22;7258;50.376;8.742;2023-06-26T01:02:55;18.90;99.90
14349;DHT22;7258;50.376;8.742;2023-06-26T01:05:01;18.90;99.90
14349;DHT22;7258;50.376;8.742;2023-06-26T01:07:08;18.90;99.90
14349;DHT22;7258;50.376;8.742;2023-06-26T01:09:11;18.80;99.90
14349;DHT22;7258;50.376;8.742;2023-06-26T01:11:14;18.80;99.90
14349;DHT22;7258;50.376;8.742;2023-06-26T01:13:18;18.80;99.90
14349;DHT22;7258;50.376;8.742;2023-06-26T01:15:21;18.80;99.90
14349;DHT22;7258;50.376;8.742;2023-06-26T01:17:24;18.80;99.90
14349;DHT22;7258;50.376;8.742;2023-06-26T01:19:31;18.80;99.90
14349;DHT22;7258;50.376;8.742;2023-06-26T01:21:35;18.80;99.90
14349;DHT22;7258;50.376;8.742;2023-06-26T01:23:57;18.80;99.90
14349;DHT22;7258;50.376;8.742;2023-06-26T01:26:16;18.80;99.90
14349;DHT22;7258;50.376;8.742;2023-06-26T01:28:20;18.80;99.90
14349;DHT22;7258;50.376;8.742;2023-06-26T01:30:23;18.70;99.90
14349;DHT22;7258;50.376;8.742;2023-06-26T01:32:28;18.70;99.90
14349;DHT22;7258;50.376;8.742;2023-06-26T01:34:32;18.70;99.90
14349;DHT22;7258;50.376;8.742;2023-06-26T01:36:35;18.70;99.90
14349;DHT22;7258;50.376;8.742;2023-06-26T01:38:39;18.70;99.90
14349;DHT22;7258;50.376;8.742;2023-06-26T01:40:41;18.60;99.90
14349;DHT22;7258;50.376;8.742;2023-06-26T01:42:46;18.60;99.90
14349;DHT22;7258;50.376;8.742;2023-06-26T01:44:50;18.50;99.90
14349;DHT22;7258;50.376;8.742;2023-06-26T01:47:00;18.40;99.90
14349;DHT22;7258;50.376;8.742;2023-06-26T01:49:07;18.40;99.90
14349;DHT22;7258;50.376;8.742;2023-06-26T01:51:13;18.40;99.90
14349;DHT22;7258;50.376;8.742;2023-06-26T01:53:22;18.30;99.90
14349;DHT22;7258;50.376;8.742;2023-06-26T01:55:32;18.30;99.90
14349;DHT22;7258;50.376;8.742;2023-06-26T01:57:38;18.30;99.90
14349;DHT22;7258;50.376;8.742;2023-06-26T01:59:43;18.20;99.90
14349;DHT22;7258;50.376;8.742;2023-06-26T02:01:48;18.20;99.90
14349;DHT22;7258;50.376;8.742;2023-06-26T02:03:52;18.20;99.90
14349;DHT22;7258;50.376;8.742;2023-06-26T02:05:55;18.20;99.90
14349;DHT22;7258;50.376;8.742;2023-06-26T02:07:58;18.20;99.90
14349;DHT22;7258;50.376;8.742;2023-06-26T02:10:03;18.20;99.90
14349;DHT22;7258;50.376;8.742;2023-06-26T02:12:06;18.10;99.90
14349;DHT22;7258;50.376;8.742;2023-06-26T02:14:09;18.00;99.90
14349;DHT22;7258;50.376;8.742;2023-06-26T02:16:15;18.00;99.90
14349;DHT22;7258;50.376;8.742;2023-06-26T02:18:18;17.90;99.90
14349;DHT22;7258;50.376;8.742;2023-06-26T02:20:25;17.90;99.90
14349;DHT22;7258;50.376;8.742;2023-06-26T02:22:28;18.00;99.90
14349;DHT22;7258;50.376;8.742;2023-06-26T02:24:31;17.90;99.90
14349;DHT22;7258;50.376;8.742;2023-06-26T02:26:35;17.90;99.90
14349;DHT22;7258;50.376;8.742;2023-06-26T02:28:38;17.90;99.90
14349;DHT22;7258;50.376;8.742;2023-06-26T02:30:41;17.90;99.90
14349;DHT22;7258;50.376;8.742;2023-06-26T02:32:45;17.80;99.90
14349;DHT22;7258;50.376;8.742;2023-06-26T02:34:48;17.80;99.90
14349;DHT22;7258;50.376;8.742;2023-06-26T02:36:53;17.80;99.90
14349;DHT22;7258;50.376;8.742;2023-06-26T02:38:56;17.70;99.90
14349;DHT22;7258;50.376;8.742;2023-06-26T02:40:59;17.70;99.90
14349;DHT22;7258;50.376;8.742;2023-06-26T02:43:02;17.80;99.90
14349;DHT22;7258;50.376;8.742;2023-06-26T02:45:06;17.80;99.90
14349;DHT22;7258;50.376;8.742;2023-06-26T02:47:09;17.80;99.90
14349;DHT22;7258;50.376;8.742;2023-06-26T02:49:14;17.90;99.90
14349;DHT22;7258;50.376;8.742;2023-06-26T02:51:17;17.80;99.90
14349;DHT22;7258;50.376;8.742;2023-06-26T02:53:20;17.80;99.90
14349;DHT22;7258;50.376;8.742;2023-06-26T02:55:23;17.70;99.90
14349;DHT22;7258;50.376;8.742;2023-06-26T02:57:26;17.60;99.90
14349;DHT22;7258;50.376;8.742;2023-06-26T02:59:28;17.60;99.90
14349;DHT22;7258;50.376;8.742;2023-06-26T03:01:33;17.50;99.90
14349;DHT22;7258;50.376;8.742;2023-06-26T03:03:36;17.40;99.90
14349;DHT22;7258;50.376;8.742;2023-06-26T03:05:43;17.40;99.90
14349;DHT22;7258;50.376;8.742;2023-06-26T03:07:46;17.40;99.90
14349;DHT22;7258;50.376;8.742;2023-06-26T03:09:49;17.30;99.90
14349;DHT22;7258;50.376;8.742;2023-06-26T03:11:52;17.30;99.90
14349;DHT22;7258;50.376;8.742;2023-06-26T03:13:57;17.30;99.90
14349;DHT22;7258;50.376;8.742;2023-06-26T03:16:00;17.20;99.90
14349;DHT22;7258;50.376;8.742;2023-06-26T03:18:03;17.20;99.90
14349;DHT22;7258;50.376;8.742;2023-06-26T03:20:07;17.20;99.90
14349;DHT22;7258;50.376;8.742;2023-06-26T03:22:12;17.20;99.90
14349;DHT22;7258;50.376;8.742;2023-06-26T03:24:15;17.20;99.90
14349;DHT22;7258;50.376;8.742;2023-06-26T03:26:18;17.20;99.90
14349;DHT22;7258;50.376;8.742;2023-06-26T03:28:21;17.20;99.90
14349;DHT22;7258;50.376;8.742;2023-06-26T03:30:24;17.20;99.90
14349;DHT22;7258;50.376;8.742;2023-06-26T03:32:27;17.20;99.90
14349;DHT22;7258;50.376;8.742;2023-06-26T03:34:30;17.10;99.90
14349;DHT22;7258;50.376;8.742;2023-06-26T03:36:32;17.10;99.90
14349;DHT22;7258;50.376;8.742;2023-06-26T03:38:38;17.10;99.90
14349;DHT22;7258;50.376;8.742;2023-06-26T03:40:41;17.10;99.90
14349;DHT22;7258;50.376;8.742;2023-06-26T03:42:44;17.10;99.90
14349;DHT22;7258;50.376;8.742;2023-06-26T03:44:47;17.10;99.90
14349;DHT22;7258;50.376;8.742;2023-06-26T03:46:50;17.10;99.90
14349;DHT22;7258;50.376;8.742;2023-06-26T03:48:53;17.10;99.90
14349;DHT22;7258;50.376;8.742;2023-06-26T03:50:58;17.10;99.90
14349;DHT22;7258;50.376;8.742;2023-06-26T03:53:03;17.10;99.90
14349;DHT22;7258;50.376;8.742;2023-06-26T03:55:07;17.20;99.90
14349;DHT22;7258;50.376;8.742;2023-06-26T03:57:10;17.20;99.90
14349;DHT22;7258;50.376;8.742;2023-06-26T03:59:14;17.20;99.90
14349;DHT22;7258;50.376;8.742;2023-06-26T04:01:17;17.20;99.90
14349;DHT22;7258;50.376;8.742;2023-06-26T04:03:23;17.30;99.90
14349;DHT22;7258;50.376;8.742;2023-06-26T04:05:26;17.30;99.90
14349;DHT22;7258;50.376;8.742;2023-06-26T04:07:29;17.30;99.90
14349;DHT22;7258;50.376;8.742;2023-06-26T04:09:32;17.30;99.90
14349;DHT22;7258;50.376;8.742;2023-06-26T04:11:36;17.30;99.90
14349;DHT22;7258;50.376;8.742;2023-06-26T04:13:39;17.30;99.90
14349;DHT22;7258;50.376;8.742;2023-06-26T04:15:42;17.30;99.90
14349;DHT22;7258;50.376;8.742;2023-06-26T04:17:45;17.40;99.90
14349;DHT22;7258;50.376;8.742;2023-06-26T04:19:48;17.40;99.90
14349;DHT22;7258;50.376;8.742;2023-06-26T04:21:51;17.40;99.90
14349;DHT22;7258;50.376;8.742;2023-06-26T04:23:54;17.40;99.90
14349;DHT22;7258;50.376;8.742;2023-06-26T04:25:57;17.50;99.90
14349;DHT22;7258;50.376;8.742;2023-06-26T04:28:02;17.50;99.90
14349;DHT22;7258;50.376;8.742;2023-06-26T04:30:06;17.60;99.90
14349;DHT22;7258;50.376;8.742;2023-06-26T04:32:09;17.60;99.90
14349;DHT22;7258;50.376;8.742;2023-06-26T04:34:14;17.60;99.90
14349;DHT22;7258;50.376;8.742;2023-06-26T04:36:17;17.70;99.90
14349;DHT22;7258;50.376;8.742;2023-06-26T04:38:20;17.80;99.90
14349;DHT22;7258;50.376;8.742;2023-06-26T04:40:24;17.90;99.90
14349;DHT22;7258;50.376;8.742;2023-06-26T04:42:26;17.90;99.90
14349;DHT22;7258;50.376;8.742;2023-06-26T04:44:31;18.00;99.90
14349;DHT22;7258;50.376;8.742;2023-06-26T04:46:33;18.10;99.90
14349;DHT22;7258;50.376;8.742;2023-06-26T04:48:36;18.10;99.90
14349;DHT22;7258;50.376;8.742;2023-06-26T04:50:39;18.20;99.90
14349;DHT22;7258;50.376;8.742;2023-06-26T04:52:42;18.30;99.90
14349;DHT22;7258;50.376;8.742;2023-06-26T04:54:45;18.40;99.90
14349;DHT22;7258;50.376;8.742;2023-06-26T04:56:48;18.50;99.90
14349;DHT22;7258;50.376;8.742;2023-06-26T04:58:51;18.50;99.90
14349;DHT22;7258;50.376;8.742;2023-06-26T05:00:55;18.60;99.90
14349;DHT22;7258;50.376;8.742;2023-06-26T05:03:00;18.70;99.90
14349;DHT22;7258;50.376;8.742;2023-06-26T05:05:03;18.80;99.90
14349;DHT22;7258;50.376;8.742;2023-06-26T05:07:06;18.80;99.90
14349;DHT22;7258;50.376;8.742;2023-06-26T05:09:09;18.90;99.90
14349;DHT22;7258;50.376;8.742;2023-06-26T05:11:13;19.00;99.90
14349;DHT22;7258;50.376;8.742;2023-06-26T05:13:15;19.00;99.90
14349;DHT22;7258;50.376;8.742;2023-06-26T05:15:21;19.10;99.90
14349;DHT22;7258;50.376;8.742;2023-06-26T05:17:25;19.20;99.90
14349;DHT22;7258;50.376;8.742;2023-06-26T05:19:28;19.30;99.90
14349;DHT22;7258;50.376;8.742;2023-06-26T05:21:34;19.30;99.90
14349;DHT22;7258;50.376;8.742;2023-06-26T05:23:37;19.40;99.90
14349;DHT22;7258;50.376;8.742;2023-06-26T05:25:41;19.50;99.90
14349;DHT22;7258;50.376;8.742;2023-06-26T05:27:44;19.70;99.90
14349;DHT22;7258;50.376;8.742;2023-06-26T05:29:48;19.80;99.90
14349;DHT22;7258;50.376;8.742;2023-06-26T05:31:52;19.90;99.90
14349;DHT22;7258;50.376;8.742;2023-06-26T05:33:58;20.10;99.90
14349;DHT22;7258;50.376;8.742;2023-06-26T05:36:04;20.30;99.90
14349;DHT22;7258;50.376;8.742;2023-06-26T05:38:08;20.40;99.90
14349;DHT22;7258;50.376;8.742;2023-06-26T05:40:12;20.50;99.90
14349;DHT22;7258;50.376;8.742;2023-06-26T05:42:17;20.60;99.90
14349;DHT22;7258;50.376;8.742;2023-06-26T05:44:20;20.80;99.90
14349;DHT22;7258;50.376;8.742;2023-06-26T05:46:34;20.90;99.90
14349;DHT22;7258;50.376;8.742;2023-06-26T05:48:38;21.10;99.90
14349;DHT22;7258;50.376;8.742;2023-06-26T05:50:45;21.20;99.90
14349;DHT22;7258;50.376;8.742;2023-06-26T05:52:49;21.30;99.90
14349;DHT22;7258;50.376;8.742;2023-06-26T05:54:52;21.50;99.90
14349;DHT22;7258;50.376;8.742;2023-06-26T05:56:57;21.60;99.90
14349;DHT22;7258;50.376;8.742;2023-06-26T05:59:01;21.70;99.90
14349;DHT22;7258;50.376;8.742;2023-06-26T06:01:05;21.80;99.90
14349;DHT22;7258;50.376;8.742;2023-06-26T06:03:09;21.90;99.90
14349;DHT22;7258;50.376;8.742;2023-06-26T06:05:13;22.00;99.90
14349;DHT22;7258;50.376;8.742;2023-06-26T06:07:17;22.10;99.90
14349;DHT22;7258;50.376;8.742;2023-06-26T06:09:21;22.20;99.90
14349;DHT22;7258;50.376;8.742;2023-06-26T06:11:24;22.40;99.90
14349;DHT22;7258;50.376;8.742;2023-06-26T06:13:27;22.50;99.90
14349;DHT22;7258;50.376;8.742;2023-06-26T06:15:30;22.70;99.90
14349;DHT22;7258;50.376;8.742;2023-06-26T06:17:33;22.80;99.90
14349;DHT22;7258;50.376;8.742;2023-06-26T06:19:36;23.00;99.90
14349;DHT22;7258;50.376;8.742;2023-06-26T06:21:39;23.10;99.90
14349;DHT22;7258;50.376;8.742;2023-06-26T06:23:44;23.20;99.90
14349;DHT22;7258;50.376;8.742;2023-06-26T06:25:47;23.40;99.90
14349;DHT22;7258;50.376;8.742;2023-06-26T06:27:50;23.50;99.90
14349;DHT22;7258;50.376;8.742;2023-06-26T06:29:53;23.50;99.90
14349;DHT22;7258;50.376;8.742;2023-06-26T06:31:57;23.60;99.90
14349;DHT22;7258;50.376;8.742;2023-06-26T06:34:00;23.70;99.90
14349;DHT22;7258;50.376;8.742;2023-06-26T06:36:04;23.80;99.90
14349;DHT22;7258;50.376;8.742;2023-06-26T06:38:07;23.80;99.90
14349;DHT22;7258;50.376;8.742;2023-06-26T06:40:15;23.90;99.90
14349;DHT22;7258;50.376;8.742;2023-06-26T06:42:18;24.00;99.90
14349;DHT22;7258;50.376;8.742;2023-06-26T06:44:23;24.10;99.90
14349;DHT22;7258;50.376;8.742;2023-06-26T06:46:26;24.20;99.90
14349;DHT22;7258;50.376;8.742;2023-06-26T06:48:30;24.30;99.90
14349;DHT22;7258;50.376;8.742;2023-06-26T06:50:33;24.30;99.90
14349;DHT22;7258;50.376;8.742;2023-06-26T06:52:38;24.30;99.90
14349;DHT22;7258;50.376;8.742;2023-06-26T06:54:51;24.40;99.90
14349;DHT22;7258;50.376;8.742;2023-06-26T06:56:56;24.60;99.90
14349;DHT22;7258;50.376;8.742;2023-06-26T06:58:59;24.80;99.90
14349;DHT22;7258;50.376;8.742;2023-06-26T07:01:02;25.00;99.70
14349;DHT22;7258;50.376;8.742;2023-06-26T07:03:19;25.10;99.40
14349;DHT22;7258;50.376;8.742;2023-06-26T07:05:23;25.20;99.10
14349;DHT22;7258;50.376;8.742;2023-06-26T07:07:28;25.20;98.90
14349;DHT22;7258;50.376;8.742;2023-06-26T07:09:32;25.20;98.70
14349;DHT22;7258;50.376;8.742;2023-06-26T07:11:35;25.30;98.80
14349;DHT22;7258;50.376;8.742;2023-06-26T07:13:39;25.30;98.70
14349;DHT22;7258;50.376;8.742;2023-06-26T07:15:42;25.50;98.50
14349;DHT22;7258;50.376;8.742;2023-06-26T07:17:45;25.60;98.40
14349;DHT22;7258;50.376;8.742;2023-06-26T07:19:49;25.60;98.40
14349;DHT22;7258;50.376;8.742;2023-06-26T07:21:52;25.70;98.60
14349;DHT22;7258;50.376;8.742;2023-06-26T07:23:55;25.70;98.50
14349;DHT22;7258;50.376;8.742;2023-06-26T07:25:57;25.80;98.50
14349;DHT22;7258;50.376;8.742;2023-06-26T07:28:21;25.80;98.30
14349;DHT22;7258;50.376;8.742;2023-06-26T07:31:23;25.90;98.50
14349;DHT22;7258;50.376;8.742;2023-06-26T07:33:32;26.00;98.20
14349;DHT22;7258;50.376;8.742;2023-06-26T07:35:46;26.20;97.90
14349;DHT22;7258;50.376;8.742;2023-06-26T07:37:49;26.40;97.70
14349;DHT22;7258;50.376;8.742;2023-06-26T07:39:53;26.50;97.50
14349;DHT22;7258;50.376;8.742;2023-06-26T07:41:56;26.60;97.40
14349;DHT22;7258;50.376;8.742;2023-06-26T07:43:59;26.70;97.10
14349;DHT22;7258;50.376;8.742;2023-06-26T07:46:02;26.90;96.70
14349;DHT22;7258;50.376;8.742;2023-06-26T07:48:07;27.00;96.60
14349;DHT22;7258;50.376;8.742;2023-06-26T07:50:10;27.10;96.20
14349;DHT22;7258;50.376;8.742;2023-06-26T07:52:15;27.00;96.40
14349;DHT22;7258;50.376;8.742;2023-06-26T07:54:18;27.00;96.40
14349;DHT22;7258;50.376;8.742;2023-06-26T07:56:20;27.10;96.00
14349;DHT22;7258;50.376;8.742;2023-06-26T07:58:23;27.20;95.90
14349;DHT22;7258;50.376;8.742;2023-06-26T08:00:27;27.30;95.60
14349;DHT22;7258;50.376;8.742;2023-06-26T08:02:30;27.40;95.60
14349;DHT22;7258;50.376;8.742;2023-06-26T08:04:34;27.60;95.30
14349;DHT22;7258;50.376;8.742;2023-06-26T08:06:37;27.70;94.80
14349;DHT22;7258;50.376;8.742;2023-06-26T08:08:41;27.80;94.30
14349;DHT22;7258;50.376;8.742;2023-06-26T08:10:44;27.80;93.50
14349;DHT22;7258;50.376;8.742;2023-06-26T08:12:47;27.60;93.70
14349;DHT22;7258;50.376;8.742;2023-06-26T08:14:52;27.80;94.30
14349;DHT22;7258;50.376;8.742;2023-06-26T08:16:55;28.20;93.80
14349;DHT22;7258;50.376;8.742;2023-06-26T08:18:57;28.50;93.30
14349;DHT22;7258;50.376;8.742;2023-06-26T08:21:02;28.80;92.80
14349;DHT22;7258;50.376;8.742;2023-06-26T08:23:05;28.90;91.90
14349;DHT22;7258;50.376;8.742;2023-06-26T08:25:09;28.70;92.20
14349;DHT22;7258;50.376;8.742;2023-06-26T08:27:12;28.70;92.40
14349;DHT22;7258;50.376;8.742;2023-06-26T08:29:15;28.70;92.30
14349;DHT22;7258;50.376;8.742;2023-06-26T08:31:18;28.90;92.30
14349;DHT22;7258;50.376;8.742;2023-06-26T08:33:21;29.30;91.80
14349;DHT22;7258;50.376;8.742;2023-06-26T08:35:24;29.50;91.60
14349;DHT22;7258;50.376;8.742;2023-06-26T08:37:29;29.60;91.40
14349;DHT22;7258;50.376;8.742;2023-06-26T08:39:34;29.70;91.20
14349;DHT22;7258;50.376;8.742;2023-06-26T08:41:37;29.70;91.40
14349;DHT22;7258;50.376;8.742;2023-06-26T08:43:40;29.40;91.50
14349;DHT22;7258;50.376;8.742;2023-06-26T08:45:43;29.10;91.80
14349;DHT22;7258;50.376;8.742;2023-06-26T08:47:50;29.10;92.10
14349;DHT22;7258;50.376;8.742;2023-06-26T08:50:01;29.00;91.70
14349;DHT22;7258;50.376;8.742;2023-06-26T08:52:11;28.80;92.10
14349;DHT22;7258;50.376;8.742;2023-06-26T08:54:22;28.60;87.90
14349;DHT22;7258;50.376;8.742;2023-06-26T08:56:28;28.50;85.60
14349;DHT22;7258;50.376;8.742;2023-06-26T08:58:34;28.30;85.50
14349;DHT22;7258;50.376;8.742;2023-06-26T09:00:43;28.10;85.60
14349;DHT22;7258;50.376;8.742;2023-06-26T09:02:59;28.10;86.30
14349;DHT22;7258;50.376;8.742;2023-06-26T09:05:04;28.00;87.30
14349;DHT22;7258;50.376;8.742;2023-06-26T09:07:07;27.90;87.20
14349;DHT22;7258;50.376;8.742;2023-06-26T09:09:10;27.80;87.10
14349;DHT22;7258;50.376;8.742;2023-06-26T09:11:15;27.80;87.20
14349;DHT22;7258;50.376;8.742;2023-06-26T09:13:18;27.70;87.90
14349;DHT22;7258;50.376;8.742;2023-06-26T09:15:37;27.80;89.20
14349;DHT22;7258;50.376;8.742;2023-06-26T09:17:42;28.00;89.70
14349;DHT22;7258;50.376;8.742;2023-06-26T09:19:45;28.20;89.70
14349;DHT22;7258;50.376;8.742;2023-06-26T09:21:50;28.10;90.20
14349;DHT22;7258;50.376;8.742;2023-06-26T09:23:53;28.10;90.20
14349;DHT22;7258;50.376;8.742;2023-06-26T09:25:56;28.10;90.50
14349;DHT22;7258;50.376;8.742;2023-06-26T09:28:01;28.00;90.90
14349;DHT22;7258;50.376;8.742;2023-06-26T09:30:06;28.10;91.30
14349;DHT22;7258;50.376;8.742;2023-06-26T09:32:09;28.00;91.30
14349;DHT22;7258;50.376;8.742;2023-06-26T09:34:12;27.80;91.80
14349;DHT22;7258;50.376;8.742;2023-06-26T09:36:19;27.70;92.20
14349;DHT22;7258;50.376;8.742;2023-06-26T09:38:23;27.90;92.20
14349;DHT22;7258;50.376;8.742;2023-06-26T09:40:26;28.20;92.20
14349;DHT22;7258;50.376;8.742;2023-06-26T09:42:29;28.70;91.90
14349;DHT22;7258;50.376;8.742;2023-06-26T09:44:34;29.30;91.60
14349;DHT22;7258;50.376;8.742;2023-06-26T09:46:38;29.60;90.60
14349;DHT22;7258;50.376;8.742;2023-06-26T09:48:41;29.50;89.70
14349;DHT22;7258;50.376;8.742;2023-06-26T09:50:44;29.30;90.10
14349;DHT22;7258;50.376;8.742;2023-06-26T09:53:09;29.10;90.20
14349;DHT22;7258;50.376;8.742;2023-06-26T09:55:12;28.90;90.40
14349;DHT22;7258;50.376;8.742;2023-06-26T09:57:17;28.80;90.60
14349;DHT22;7258;50.376;8.742;2023-06-26T09:59:20;28.70;90.20
14349;DHT22;7258;50.376;8.742;2023-06-26T10:01:25;28.80;90.10
14349;DHT22;7258;50.376;8.742;2023-06-26T10:03:28;28.80;90.40
14349;DHT22;7258;50.376;8.742;2023-06-26T10:05:31;28.70;90.80
14349;DHT22;7258;50.376;8.742;2023-06-26T10:07:35;28.40;90.70
14349;DHT22;7258;50.376;8.742;2023-06-26T10:09:41;28.30;90.50
14349;DHT22;7258;50.376;8.742;2023-06-26T10:11:47;28.20;90.10
14349;DHT22;7258;50.376;8.742;2023-06-26T10:13:52;27.90;89.10
14349;DHT22;7258;50.376;8.742;2023-06-26T10:16:21;27.80;89.00
14349;DHT22;7258;50.376;8.742;2023-06-26T10:18:27;27.80;89.80
14349;DHT22;7258;50.376;8.742;2023-06-26T10:20:32;27.70;90.20
14349;DHT22;7258;50.376;8.742;2023-06-26T10:22:41;27.60;89.90
14349;DHT22;7258;50.376;8.742;2023-06-26T10:24:47;27.70;90.00
14349;DHT22;7258;50.376;8.742;2023-06-26T10:26:54;27.70;89.40
14349;DHT22;7258;50.376;8.742;2023-06-26T10:29:00;27.80;89.80
14349;DHT22;7258;50.376;8.742;2023-06-26T10:31:05;27.90;89.00
14349;DHT22;7258;50.376;8.742;2023-06-26T10:33:11;28.00;89.30
14349;DHT22;7258;50.376;8.742;2023-06-26T10:35:16;28.00;88.90
14349;DHT22;7258;50.376;8.742;2023-06-26T10:37:19;27.90;88.80
14349;DHT22;7258;50.376;8.742;2023-06-26T10:39:22;27.80;89.20
14349;DHT22;7258;50.376;8.742;2023-06-26T10:41:25;27.90;89.40
14349;DHT22;7258;50.376;8.742;2023-06-26T10:43:30;28.20;90.00
14349;DHT22;7258;50.376;8.742;2023-06-26T10:45:33;28.30;89.10
14349;DHT22;7258;50.376;8.742;2023-06-26T10:47:37;28.40;90.30
14349;DHT22;7258;50.376;8.742;2023-06-26T10:49:46;28.50;90.00
14349;DHT22;7258;50.376;8.742;2023-06-26T10:52:11;28.40;89.80
14349;DHT22;7258;50.376;8.742;2023-06-26T10:54:18;28.30;90.10
14349;DHT22;7258;50.376;8.742;2023-06-26T10:56:41;28.20;90.00
14349;DHT22;7258;50.376;8.742;2023-06-26T10:58:44;28.30;90.00
14349;DHT22;7258;50.376;8.742;2023-06-26T11:03:22;28.20;90.10
14349;DHT22;7258;50.376;8.742;2023-06-26T11:05:27;28.20;90.00
14349;DHT22;7258;50.376;8.742;2023-06-26T11:08:06;28.20;89.40
14349;DHT22;7258;50.376;8.742;2023-06-26T11:10:09;28.30;89.70
14349;DHT22;7258;50.376;8.742;2023-06-26T11:12:12;28.40;90.00
14349;DHT22;7258;50.376;8.742;2023-06-26T11:14:16;28.40;89.00
14349;DHT22;7258;50.376;8.742;2023-06-26T11:16:19;28.30;88.80
14349;DHT22;7258;50.376;8.742;2023-06-26T11:18:22;28.20;90.10
14349;DHT22;7258;50.376;8.742;2023-06-26T11:20:27;28.00;90.40
14349;DHT22;7258;50.376;8.742;2023-06-26T11:22:30;28.00;90.60
14349;DHT22;7258;50.376;8.742;2023-06-26T11:24:36;28.10;90.80
14349;DHT22;7258;50.376;8.742;2023-06-26T11:26:40;28.00;90.30
14349;DHT22;7258;50.376;8.742;2023-06-26T11:28:47;28.10;90.50
14349;DHT22;7258;50.376;8.742;2023-06-26T11:30:50;28.30;90.10
14349;DHT22;7258;50.376;8.742;2023-06-26T11:33:03;28.20;89.30
14349;DHT22;7258;50.376;8.742;2023-06-26T11:35:06;28.20;88.80
14349;DHT22;7258;50.376;8.742;2023-06-26T11:37:11;27.90;89.30
14349;DHT22;7258;50.376;8.742;2023-06-26T11:39:14;27.80;89.90
14349;DHT22;7258;50.376;8.742;2023-06-26T11:41:18;28.00;89.50
14349;DHT22;7258;50.376;8.742;2023-06-26T11:43:22;28.00;89.80
14349;DHT22;7258;50.376;8.742;2023-06-26T11:45:25;28.00;89.40
14349;DHT22;7258;50.376;8.742;2023-06-26T11:47:30;28.10;89.90
14349;DHT22;7258;50.376;8.742;2023-06-26T11:49:34;28.10;87.80
14349;DHT22;7258;50.376;8.742;2023-06-26T11:51:38;28.10;89.00
14349;DHT22;7258;50.376;8.742;2023-06-26T11:53:44;28.10;89.00
14349;DHT22;7258;50.376;8.742;2023-06-26T11:55:47;28.20;88.00
14349;DHT22;7258;50.376;8.742;2023-06-26T11:57:53;28.20;87.30
14349;DHT22;7258;50.376;8.742;2023-06-26T11:59:56;28.30;87.80
14349;DHT22;7258;50.376;8.742;2023-06-26T12:02:00;28.30;87.50
14349;DHT22;7258;50.376;8.742;2023-06-26T12:04:06;28.30;88.10
14349;DHT22;7258;50.376;8.742;2023-06-26T12:06:20;28.50;88.20
14349;DHT22;7258;50.376;8.742;2023-06-26T12:08:24;28.80;87.50
14349;DHT22;7258;50.376;8.742;2023-06-26T12:10:27;28.90;86.70
14349;DHT22;7258;50.376;8.742;2023-06-26T12:12:31;28.50;87.80
14349;DHT22;7258;50.376;8.742;2023-06-26T12:14:39;28.30;88.50
14349;DHT22;7258;50.376;8.742;2023-06-26T12:16:43;28.20;88.90
14349;DHT22;7258;50.376;8.742;2023-06-26T12:18:46;28.20;89.20
14349;DHT22;7258;50.376;8.742;2023-06-26T12:20:50;28.20;87.30
14349;DHT22;7258;50.376;8.742;2023-06-26T12:22:59;28.10;88.50
14349;DHT22;7258;50.376;8.742;2023-06-26T12:25:07;28.20;89.00
14349;DHT22;7258;50.376;8.742;2023-06-26T12:27:11;28.40;88.60
14349;DHT22;7258;50.376;8.742;2023-06-26T12:29:17;28.70;87.90
14349;DHT22;7258;50.376;8.742;2023-06-26T12:31:22;28.50;86.90
14349;DHT22;7258;50.376;8.742;2023-06-26T12:33:25;28.50;88.20
14349;DHT22;7258;50.376;8.742;2023-06-26T12:35:33;28.30;87.30
14349;DHT22;7258;50.376;8.742;2023-06-26T12:37:37;28.30;88.00
14349;DHT22;7258;50.376;8.742;2023-06-26T12:39:47;28.50;88.30
14349;DHT22;7258;50.376;8.742;2023-06-26T12:41:53;28.70;87.70
14349;DHT22;7258;50.376;8.742;2023-06-26T12:43:56;28.80;87.10
14349;DHT22;7258;50.376;8.742;2023-06-26T12:46:00;29.00;87.30
14349;DHT22;7258;50.376;8.742;2023-06-26T12:48:12;29.00;87.30
14349;DHT22;7258;50.376;8.742;2023-06-26T12:50:29;29.00;87.00
14349;DHT22;7258;50.376;8.742;2023-06-26T12:52:43;29.10;87.30
14349;DHT22;7258;50.376;8.742;2023-06-26T12:54:51;29.40;86.10
14349;DHT22;7258;50.376;8.742;2023-06-26T12:56:54;29.10;86.10
14349;DHT22;7258;50.376;8.742;2023-06-26T12:58:57;29.20;86.40
14349;DHT22;7258;50.376;8.742;2023-06-26T13:01:04;29.20;86.30
14349;DHT22;7258;50.376;8.742;2023-06-26T13:03:07;29.20;85.50
14349;DHT22;7258;50.376;8.742;2023-06-26T13:05:14;29.10;85.70
14349;DHT22;7258;50.376;8.742;2023-06-26T13:07:16;28.80;85.60
14349;DHT22;7258;50.376;8.742;2023-06-26T13:09:20;29.00;86.60
14349;DHT22;7258;50.376;8.742;2023-06-26T13:11:23;29.10;86.40
14349;DHT22;7258;50.376;8.742;2023-06-26T13:13:27;29.30;86.00
14349;DHT22;7258;50.376;8.742;2023-06-26T13:15:30;29.40;84.50
14349;DHT22;7258;50.376;8.742;2023-06-26T13:17:34;29.20;84.80
14349;DHT22;7258;50.376;8.742;2023-06-26T13:19:37;29.10;84.00
14349;DHT22;7258;50.376;8.742;2023-06-26T13:21:41;29.00;84.20
14349;DHT22;7258;50.376;8.742;2023-06-26T13:23:45;28.90;84.40